Flight Track Log - Related Links

Times and Time Zones

All times are in EDT time to prevent confusion due to time zone crossing. See the ASQ4904 flight status page for this flight to view local times or setup timezone preferences in your user account.

Time Position Orientation Groundspeed Altitude Reporting Facility
EDT Latitude Longitude Course Direction KTS MPH feet Rate Location/Type
Thu 02:06:48 PM 30.5067 -86.3114 43° Northeast 285 328 7,700  Level Jacksonville Center
Thu 02:07:48 PM 30.5689 -86.2508 40° Northeast 285 328 9,900 2,050 Climbing Jacksonville Center
Thu 02:08:48 PM 30.6331 -86.1903 39° Northeast 290 334 11,800 1,900 Climbing Jacksonville Center
Thu 02:09:48 PM 30.7031 -86.1444 29° Northeast 290 334 13,700 1,800 Climbing Jacksonville Center
Thu 02:10:48 PM 30.7894 -86.1161 16° North 290 334 15,400 1,550 Climbing Jacksonville Center
Thu 02:11:48 PM 30.8717 -86.0850 18° North 300 345 16,800 1,300 Climbing Jacksonville Center
Thu 02:12:48 PM 30.9622 -86.0467 20° North 323 372 18,000 1,250 Climbing Jacksonville Center
Thu 02:13:48 PM 31.0472 -85.9889 30° Northeast 336 387 19,300 1,250 Climbing Jacksonville Center
Thu 02:14:48 PM 31.1197 -85.9308 34° Northeast 341 392 20,500 1,300 Climbing Jacksonville Center
Thu 02:15:48 PM 31.1639 -85.8278 63° Northeast 345 397 21,900 1,250 Climbing Jacksonville Center
Thu 02:16:48 PM 31.2186 -85.7178 60° Northeast 345 397 23,000 550 Climbing Jacksonville Center
Thu 02:17:48 PM 31.3156 -85.6744 21° North 339 390 23,000  Level Jacksonville Center
Thu 02:18:48 PM 31.4122 -85.6481 13° North 364 419 23,000  Level Jacksonville Center
Thu 02:20:44 PM 31.6494 -85.5831 13° North 425 489 23,000  Level Atlanta Center
Thu 02:21:44 PM 31.7686 -85.5508 13° North 436 502 23,000  Level Atlanta Center
Thu 02:22:44 PM 31.8881 -85.5186 13° North 436 502 23,000  Level Atlanta Center
Thu 02:23:44 PM 32.0094 -85.4864 13° North 436 502 23,000 -250 Level Atlanta Center
Thu 02:24:44 PM 32.1206 -85.4564 13° North 424 488 22,500 -500 Descending Atlanta Center
Thu 02:25:44 PM 32.2336 -85.4261 13° North 414 476 22,000 -500 Descending Atlanta Center
Thu 02:26:44 PM 32.3467 -85.3961 13° North 414 476 21,500 -500 Descending Atlanta Center
Thu 02:27:44 PM 32.4594 -85.3681 12° North 414 476 21,000 -250 Descending Atlanta Center
Thu 02:28:44 PM 32.5683 -85.3378 13° North 408 470 21,000  Level Atlanta Center
Thu 02:29:44 PM 32.6711 -85.3072 14° North 391 450 21,000 -200 Level Atlanta Center
Thu 02:30:44 PM 32.7736 -85.2789 13° North 385 443 20,600  Descending Atlanta Center
Thu 02:31:44 PM 32.8719 -85.2508 13° North 385 443 21,000 -1,750 Climbing Atlanta Center
Thu 02:32:44 PM 32.9850 -85.2225 12° North 398 458 17,100 -3,150 Descending Atlanta Center
Thu 02:33:44 PM 33.0817 -85.1444 34° Northeast 388 447 14,700 -2,450 Descending Atlanta Center
Thu 02:34:44 PM 33.1556 -85.0661 42° Northeast 364 419 12,200 -1,400 Descending Atlanta Center
Thu 02:35:44 PM 33.2167 -84.9947 44° Northeast 322 371 11,900 -800 Descending Atlanta Center
Thu 02:36:44 PM 33.2919 -84.9608 21° North 291 335 10,600 -1,250 Descending Atlanta Center
Thu 02:37:44 PM 33.3672 -84.9294 19° North 280 322 9,400 -1,100 Descending Atlanta Center
Thu 02:38:44 PM 33.4444 -84.9300 360° North 280 322 8,400 -1,050 Descending Atlanta Center
Thu 02:39:44 PM 33.5239 -84.9183 North 275 316 7,300 -750 Descending Atlanta Center
Thu 02:40:44 PM 33.5844 -84.9092 North 261 300 6,900 -650 Descending Atlanta Center
Thu 02:41:44 PM 33.6244 -84.8597 46° Northeast 209 241 6,000 -462 Descending Atlanta Center
Thu 02:42:54 PM 33.6333 -84.7667 83° East 222 255 5,900 -558 Descending Atlanta TRACON
Thu 02:43:53 PM 33.6333 -84.7000 90° East 224 258 4,800 -1,059 Descending Atlanta TRACON
Thu 02:44:53 PM 33.6333 -84.6167 90° East 197 227 3,800 -1,000 Descending Atlanta TRACON
Thu 02:45:53 PM 33.6333 -84.5667 90° East 182 209 2,800 -950 Descending Atlanta TRACON
Thu 02:46:53 PM 33.6333 -84.5000 90° East 160 184 1,900 -744 Descending Atlanta TRACON
Thu 02:47:54 PM 33.6333 -84.4667 90° East 140 161 1,300 -590 Descending Atlanta TRACON
Thu 02:49:00 PM 33.6367 -84.4279 126° Southeast  Level Estimated
Thu 02:56:00 PM 33.6367 -84.4279 301° West  Level Estimated
Thu 02:57:00 PM 33.6367 -84.4279 301° West  Level Estimated

Login

Don't have an account? Register now (free) for customized features, flight alerts, and more!